Time;durP1;ratioP1;P1;durP2;ratioP2;P2;SDS_P1;SDS_P2;PMS_P1;PMS_P2;Temp;Humidity;BMP_temperature;BMP_pressure;BME280_temperature;BME280_humidity;BME280_pressure;Samples;Min_cycle;Max_cycle;Signal;HPM_P1;HPM_P2
2022/09/14 00:00:25;;;;;;;4.60;3.05;;;;;;;11.77;49.69;99997.50;5071816;28;20527;-77
2022/09/14 00:02:52;;;;;;;14.50;3.22;;;;;;;11.83;49.69;100013.13;5072854;28;20102;-77
2022/09/14 00:05:18;;;;;;;7.65;3.42;;;;;;;11.81;49.76;100008.78;5054917;28;20040;-77
2022/09/14 00:07:44;;;;;;;7.03;3.80;;;;;;;11.76;49.56;100011.81;5071429;28;20040;-76
2022/09/14 00:10:10;;;;;;;8.27;3.50;;;;;;;11.73;49.94;100009.38;5071502;28;20052;-77
2022/09/14 00:12:36;;;;;;;7.07;3.83;;;;;;;11.61;49.81;99992.38;5054986;28;20096;-77
2022/09/14 00:15:02;;;;;;;7.30;3.78;;;;;;;11.66;49.92;100008.16;5054981;28;20496;-77
2022/09/14 00:17:29;;;;;;;8.05;3.53;;;;;;;11.63;50.44;100006.53;5055165;28;20514;-77
2022/09/14 00:19:55;;;;;;;12.00;3.15;;;;;;;11.62;50.10;100003.94;5054913;28;20049;-77
2022/09/14 00:22:21;;;;;;;8.10;3.22;;;;;;;11.60;50.47;100000.56;5038640;28;20090;-77
2022/09/14 00:24:46;;;;;;;11.25;3.50;;;;;;;11.56;50.66;100004.44;5073079;28;20033;-77
2022/09/14 00:27:12;;;;;;;10.13;3.55;;;;;;;11.55;50.45;100011.59;5071291;28;20153;-77
2022/09/14 00:29:38;;;;;;;6.57;3.20;;;;;;;11.54;50.72;100001.00;5071469;28;20098;-77
2022/09/14 00:32:04;;;;;;;5.25;3.35;;;;;;;11.52;50.58;100006.47;5071413;28;20044;-77
2022/09/14 00:34:30;;;;;;;8.00;3.40;;;;;;;11.50;50.85;99999.50;5071518;28;20048;-77
2022/09/14 00:36:56;;;;;;;7.68;3.30;;;;;;;11.50;50.77;100004.88;5055201;28;20426;-77
2022/09/14 00:39:23;;;;;;;7.00;3.72;;;;;;;11.45;50.93;100004.34;5072716;28;20078;-77
2022/09/14 00:41:50;;;;;;;7.78;3.22;;;;;;;11.49;50.78;100004.00;5071187;28;20040;-77
2022/09/14 00:44:16;;;;;;;5.57;3.25;;;;;;;11.42;50.69;99997.41;5054631;28;20084;-76
2022/09/14 00:46:46;;;;;;;6.97;3.38;;;;;;;11.50;50.97;100010.22;5071231;28;20135;-77
2022/09/14 00:49:24;;;;;;;4.43;3.50;;;;;;;11.45;51.36;100007.88;5054677;28;20040;-77
2022/09/14 00:52:18;;;;;;;5.55;3.33;;;;;;;11.48;51.40;100009.50;5038113;28;20091;-78
2022/09/14 00:54:55;;;;;;;3.40;3.08;;;;;;;11.53;51.05;100004.66;5038146;28;20507;-78
2022/09/14 00:57:23;;;;;;;6.25;3.00;;;;;;;11.47;51.47;99994.38;5071935;28;20384;-77
2022/09/14 00:59:51;;;;;;;5.15;2.97;;;;;;;11.54;51.52;100009.03;5058279;28;20134;-78
2022/09/14 01:02:19;;;;;;;5.32;2.85;;;;;;;11.56;51.44;99999.91;5074742;28;20041;-78
2022/09/14 01:04:46;;;;;;;3.30;3.00;;;;;;;11.51;51.35;99985.16;5074800;28;20106;-78
2022/09/14 01:07:37;;;;;;;3.33;2.95;;;;;;;11.65;51.22;99998.38;5075848;28;20094;-77
2022/09/14 01:10:23;;;;;;;4.47;3.17;;;;;;;11.70;51.38;100001.59;5074456;28;20071;-78
2022/09/14 01:13:00;;;;;;;9.70;2.67;;;;;;;11.73;51.11;99995.97;5058356;28;20453;-78
2022/09/14 01:15:41;;;;;;;3.20;2.70;;;;;;;11.81;51.16;99998.97;5074711;28;20185;-78
2022/09/14 01:18:23;;;;;;;3.25;2.92;;;;;;;11.82;50.77;99989.94;5057875;28;20076;-77
2022/09/14 01:21:02;;;;;;;4.05;2.80;;;;;;;11.93;50.96;99999.91;5074388;28;20488;-76
2022/09/14 01:23:32;;;;;;;3.20;3.00;;;;;;;11.96;50.71;99990.75;5058545;28;20042;-77
2022/09/14 01:26:27;;;;;;;6.53;2.70;;;;;;;12.01;50.53;99999.31;5057995;28;20049;-77
2022/09/14 01:29:02;;;;;;;5.20;3.00;;;;;;;12.05;50.41;99998.97;5058253;28;20127;-78
2022/09/14 01:31:36;;;;;;;2.80;2.60;;;;;;;12.11;50.70;99994.94;5057757;28;20045;-78
2022/09/14 01:34:15;;;;;;;3.13;2.90;;;;;;;12.15;50.29;99988.41;5087901;28;20379;-77
2022/09/14 01:36:47;;;;;;;4.57;2.50;;;;;;;12.25;50.06;99994.75;5087213;28;20048;-76
2022/09/14 01:39:15;;;;;;;2.95;2.75;;;;;;;12.34;50.09;99998.59;5040934;28;20081;-77
2022/09/14 01:41:41;;;;;;;3.05;2.80;;;;;;;12.43;49.94;99994.31;5074350;28;20500;-77
2022/09/14 01:44:24;;;;;;;3.08;2.78;;;;;;;12.51;49.93;99991.91;5075368;28;20141;-78
2022/09/14 01:46:56;;;;;;;3.45;2.50;;;;;;;12.47;49.24;99985.06;5057452;28;20412;-78
2022/09/14 01:49:31;;;;;;;3.03;2.83;;;;;;;12.45;49.46;99981.63;5057171;28;20553;-77
2022/09/14 01:52:07;;;;;;;4.80;2.63;;;;;;;12.52;49.29;99993.59;5073553;28;20423;-78
2022/09/14 01:54:41;;;;;;;3.10;2.80;;;;;;;12.52;49.31;99990.91;5057547;28;20075;-77
2022/09/14 01:57:14;;;;;;;3.10;2.80;;;;;;;12.55;49.48;99988.84;5073535;28;20037;-77
2022/09/14 01:59:45;;;;;;;3.92;2.50;;;;;;;12.60;49.19;99991.19;5040507;28;20048;-77
2022/09/14 02:02:15;;;;;;;3.25;2.97;;;;;;;12.71;49.00;100001.91;5053380;28;20512;-77
2022/09/14 02:04:49;;;;;;;4.35;2.72;;;;;;;12.64;49.16;99995.34;5057181;28;20135;-78
2022/09/14 02:07:17;;;;;;;2.78;2.53;;;;;;;12.70;49.22;100002.91;5040051;28;20078;-77
2022/09/14 02:09:43;;;;;;;8.30;2.67;;;;;;;12.79;49.06;100002.19;5072616;28;20055;-77
2022/09/14 02:12:09;;;;;;;3.17;2.75;;;;;;;12.85;48.66;99999.00;5073641;28;20048;-77
2022/09/14 02:14:35;;;;;;;4.53;2.83;;;;;;;12.93;48.83;100002.91;5073146;28;20157;-77
2022/09/14 02:17:01;;;;;;;3.20;2.90;;;;;;;12.89;48.84;99995.09;5073049;28;20141;-78
2022/09/14 02:19:34;;;;;;;3.53;2.63;;;;;;;12.85;48.62;99990.97;5040067;28;20044;-78
2022/09/14 02:22:00;;;;;;;4.18;3.10;;;;;;;12.88;48.64;100003.28;5073444;28;20048;-77
2022/09/14 02:24:27;;;;;;;3.88;3.35;;;;;;;12.87;48.52;99994.38;5039831;28;20423;-78
2022/09/14 02:26:55;;;;;;;6.15;3.28;;;;;;;12.92;48.56;100001.22;5073956;28;20474;-78
2022/09/14 02:29:21;;;;;;;3.95;3.10;;;;;;;12.95;48.83;99998.28;5056211;28;20500;-78
2022/09/14 02:32:06;;;;;;;6.82;3.55;;;;;;;13.11;48.55;100001.44;5073486;28;20051;-78
2022/09/14 02:34:45;;;;;;;4.82;3.05;;;;;;;13.02;48.71;99996.84;5056176;28;20048;-80
2022/09/14 02:37:11;;;;;;;;;;;;;;;12.97;48.64;99999.00;5056719;28;20410;-76
2022/09/14 02:39:43;;;;;;;5.25;3.10;;;;;;;13.04;48.43;99992.19;5074505;28;19916;-80
2022/09/14 02:42:28;;;;;;;6.38;3.20;;;;;;;13.25;48.27;100001.22;5040577;28;20080;-75
2022/09/14 02:45:16;;;;;;;13.23;3.70;;;;;;;13.34;48.17;99992.41;5056589;28;20040;-80
2022/09/14 02:47:48;;;;;;;8.20;3.00;;;;;;;13.49;47.86;100006.44;5055904;28;20051;-78
2022/09/14 02:50:22;;;;;;;7.63;2.90;;;;;;;13.49;47.58;99986.78;5056073;28;20049;-83
2022/09/14 02:53:06;;;;;;;9.10;3.40;;;;;;;13.64;47.51;100004.31;5039641;28;20044;-78
2022/09/14 02:55:43;;;;;;;9.90;3.20;;;;;;;13.65;47.09;99994.44;5056178;28;20511;-79
2022/09/14 02:58:11;;;;;;;10.75;3.53;;;;;;;13.73;47.29;100003.59;5073655;28;20040;-81
2022/09/14 03:00:43;;;;;;;15.30;3.58;;;;;;;13.78;47.23;100001.34;5055497;28;20392;-81
2022/09/14 03:03:11;;;;;;;6.90;3.10;;;;;;;13.83;47.39;99977.63;5073055;28;20056;-84
2022/09/14 03:05:37;;;;;;;18.95;3.40;;;;;;;14.05;46.81;99994.66;5074554;28;20048;-84
2022/09/14 03:08:03;;;;;;;8.05;3.85;;;;;;;14.14;46.54;99995.72;5072151;28;20059;-79
2022/09/14 03:10:30;;;;;;;6.47;3.03;;;;;;;14.18;46.40;99997.16;5073569;28;20040;-79
2022/09/14 03:12:56;;;;;;;7.55;3.25;;;;;;;14.19;46.54;99988.97;5072102;28;20075;-77
2022/09/14 03:15:22;;;;;;;10.70;3.35;;;;;;;14.26;46.31;99990.16;5072334;28;20076;-79
2022/09/14 03:17:50;;;;;;;12.15;3.55;;;;;;;14.33;46.13;99985.97;5072072;28;20040;-80
2022/09/14 03:20:18;;;;;;;4.72;3.47;;;;;;;14.41;46.38;99993.38;5038738;28;20499;-83
2022/09/14 03:22:45;;;;;;;3.92;3.17;;;;;;;14.46;46.05;99992.97;5073396;28;20040;-77
2022/09/14 03:25:11;;;;;;;4.32;2.80;;;;;;;14.47;45.73;99973.16;5073176;28;20052;-76
2022/09/14 03:27:38;;;;;;;5.90;3.00;;;;;;;14.48;45.45;99974.84;5088770;28;20040;-77
2022/09/14 03:30:05;;;;;;;14.82;3.22;;;;;;;14.48;45.93;99972.16;5073278;28;20090;-80
2022/09/14 03:32:31;;;;;;;15.68;3.00;;;;;;;14.58;45.65;99984.72;5072274;28;20040;-76
2022/09/14 03:34:57;;;;;;;3.22;2.80;;;;;;;14.62;45.84;99985.31;5072858;28;20078;-78
2022/09/14 03:37:25;;;;;;;7.10;3.95;;;;;;;14.50;46.24;99989.06;5072986;28;20075;-76
2022/09/14 03:39:54;;;;;;;7.07;3.40;;;;;;;14.70;45.54;99982.81;5057678;28;20067;-77
2022/09/14 03:42:20;;;;;;;10.73;3.30;;;;;;;14.81;45.37;99982.72;5074530;28;20051;-78
2022/09/14 03:44:46;;;;;;;8.35;3.38;;;;;;;14.94;44.94;99978.97;5074267;28;20070;-78
2022/09/14 03:47:12;;;;;;;12.20;3.75;;;;;;;15.06;44.56;99977.88;5091147;28;20499;-79
2022/09/14 03:49:38;;;;;;;8.27;3.20;;;;;;;15.14;44.92;99980.75;5091300;28;20056;-80
2022/09/14 03:52:05;;;;;;;5.90;3.15;;;;;;;15.30;44.28;99975.69;5074307;28;20182;-79
2022/09/14 03:54:31;;;;;;;5.70;2.97;;;;;;;15.41;44.28;99981.94;5090896;28;20055;-77
2022/09/14 03:56:57;;;;;;;8.13;3.25;;;;;;;15.51;44.18;99983.69;5073809;28;20093;-76
2022/09/14 03:59:23;;;;;;;5.43;3.13;;;;;;;15.66;43.80;99981.47;5057000;28;20059;-77
2022/09/14 04:01:49;;;;;;;3.78;3.25;;;;;;;15.80;43.69;99980.22;5090591;28;20040;-79
2022/09/14 04:04:14;;;;;;;3.55;3.03;;;;;;;15.79;43.49;99963.16;5090878;28;20134;-77
2022/09/14 04:06:41;;;;;;;5.72;3.75;;;;;;;15.90;43.41;99974.81;5073825;28;20039;-76
2022/09/14 04:09:09;;;;;;;12.48;3.55;;;;;;;15.99;43.26;99982.06;5075750;28;20517;-78
2022/09/14 04:11:35;;;;;;;8.18;3.00;;;;;;;16.14;43.34;99990.59;5054825;28;20056;-76
2022/09/14 04:14:02;;;;;;;8.35;2.90;;;;;;;16.19;42.60;99972.97;5071413;28;20408;-77
2022/09/14 04:16:28;;;;;;;4.35;3.00;;;;;;;16.31;42.66;99983.59;5038459;28;20063;-77
2022/09/14 04:18:54;;;;;;;8.00;3.20;;;;;;;16.38;42.58;99984.75;5071283;28;20040;-83
2022/09/14 04:21:23;;;;;;;9.30;3.28;;;;;;;16.45;43.05;99975.91;5038107;28;20036;-77
2022/09/14 04:23:52;;;;;;;8.25;3.00;;;;;;;16.51;42.28;99977.16;5072045;28;20045;-77
2022/09/14 04:26:20;;;;;;;8.27;3.75;;;;;;;16.66;42.64;99985.66;5054413;28;20072;-76
2022/09/14 04:28:46;;;;;;;9.02;3.20;;;;;;;16.77;42.20;99971.19;5088177;28;20094;-76
2022/09/14 04:31:13;;;;;;;7.45;3.13;;;;;;;16.89;41.93;99980.81;5070972;28;20124;-77
2022/09/14 04:33:41;;;;;;;6.35;3.00;;;;;;;16.88;41.77;99969.13;5090754;28;20411;-77
2022/09/14 04:36:14;;;;;;;11.05;3.78;;;;;;;17.07;41.64;99973.59;5058081;28;20037;-77
2022/09/14 04:38:41;;;;;;;14.82;3.80;;;;;;;17.09;41.49;99959.97;5075426;28;20120;-76
2022/09/14 04:41:16;;;;;;;8.55;3.47;;;;;;;17.14;41.60;99961.22;5076491;28;20547;-77
2022/09/14 04:43:44;;;;;;;9.40;3.92;;;;;;;17.23;41.63;99979.25;5075355;28;20037;-77
2022/09/14 04:46:15;;;;;;;14.73;3.90;;;;;;;17.23;41.73;99968.44;5076151;28;20582;-78
2022/09/14 04:48:45;;;;;;;9.50;3.95;;;;;;;17.41;41.29;99976.59;5074520;28;20045;-78
2022/09/14 04:51:15;;;;;;;8.23;3.78;;;;;;;17.41;41.64;99975.72;5076283;28;20064;-76
2022/09/14 04:53:43;;;;;;;14.43;4.10;;;;;;;17.47;41.19;99975.13;5092131;28;20060;-76
2022/09/14 04:56:10;;;;;;;10.93;4.25;;;;;;;17.40;41.56;99969.47;5074681;28;20044;-76
2022/09/14 04:58:38;;;;;;;10.80;4.72;;;;;;;17.47;41.71;99975.97;5075703;28;20079;-75
2022/09/14 05:01:16;;;;;;;11.30;5.15;;;;;;;17.52;42.21;99972.78;5074071;28;20059;-75
2022/09/14 05:03:43;;;;;;;12.23;4.60;;;;;;;17.85;41.57;99984.00;5040926;28;20040;-75
2022/09/14 05:06:20;;;;;;;10.00;5.72;;;;;;;17.99;41.38;99983.47;5074287;28;20072;-76
2022/09/14 05:08:47;;;;;;;19.52;5.40;;;;;;;18.04;41.49;99983.84;5074423;28;20044;-76
2022/09/14 05:11:18;;;;;;;9.25;4.90;;;;;;;18.02;41.49;99975.06;5074293;28;20072;-76
2022/09/14 05:13:45;;;;;;;20.25;5.75;;;;;;;18.14;41.25;99981.91;5074379;28;20047;-76
2022/09/14 05:16:29;;;;;;;12.18;6.07;;;;;;;18.34;41.50;99984.44;5075834;28;20040;-77
2022/09/14 05:18:57;;;;;;;11.77;6.07;;;;;;;18.49;40.59;99987.44;5058092;28;20102;-76
2022/09/14 05:21:24;;;;;;;15.55;6.50;;;;;;;18.50;40.82;99989.97;5041041;28;20185;-76
2022/09/14 05:23:55;;;;;;;15.15;6.60;;;;;;;18.59;40.69;99978.19;5041214;28;20040;-76
2022/09/14 05:26:22;;;;;;;14.98;6.70;;;;;;;18.61;40.24;99984.28;5074923;28;20036;-76
2022/09/14 05:28:50;;;;;;;13.57;7.40;;;;;;;18.54;40.69;99969.72;5074072;28;20052;-76
2022/09/14 05:31:16;;;;;;;10.47;6.47;;;;;;;18.62;40.58;99983.31;5075480;28;20052;-76
2022/09/14 05:33:42;;;;;;;21.80;6.85;;;;;;;18.74;40.67;99980.38;5073996;28;20127;-76
2022/09/14 05:36:08;;;;;;;16.38;6.18;;;;;;;18.84;40.28;99981.09;5057032;28;20040;-76
2022/09/14 05:38:35;;;;;;;18.23;6.85;;;;;;;18.90;40.12;99981.28;5075242;28;20049;-76
2022/09/14 05:41:02;;;;;;;13.75;6.55;;;;;;;18.87;40.45;99978.06;5075170;28;20048;-76
2022/09/14 05:43:29;;;;;;;13.48;6.75;;;;;;;19.02;39.88;99975.59;5073755;28;20044;-76
2022/09/14 05:45:54;;;;;;;14.63;6.47;;;;;;;19.17;39.84;99977.53;5073669;28;20045;-76
2022/09/14 05:48:20;;;;;;;9.60;4.68;;;;;;;19.35;39.09;99971.19;5073687;28;20089;-75
2022/09/14 05:50:46;;;;;;;7.53;4.45;;;;;;;19.47;38.90;99971.72;5090521;28;20087;-75
2022/09/14 05:53:12;;;;;;;14.20;4.40;;;;;;;19.52;38.47;99970.22;5073734;28;20055;-76
2022/09/14 05:55:38;;;;;;;15.00;4.70;;;;;;;19.52;38.41;99967.50;5073426;28;20055;-75
2022/09/14 05:58:04;;;;;;;7.70;4.55;;;;;;;19.63;38.26;99967.25;5074025;28;20044;-75
2022/09/14 06:00:30;;;;;;;8.82;5.65;;;;;;;19.78;37.67;99958.44;5090424;28;20388;-76
2022/09/14 06:02:56;;;;;;;9.63;5.47;;;;;;;19.96;37.46;99961.84;5040159;28;20519;-77
2022/09/14 06:05:24;;;;;;;15.38;4.80;;;;;;;20.08;36.96;99965.94;5056633;28;20139;-76
2022/09/14 06:07:51;;;;;;;16.65;4.40;;;;;;;20.12;36.52;99956.44;5074591;28;20079;-76
2022/09/14 06:10:18;;;;;;;9.25;4.15;;;;;;;20.20;36.23;99958.31;5073507;28;20458;-76
2022/09/14 06:12:46;;;;;;;11.63;3.53;;;;;;;20.34;35.98;99956.75;5074457;28;20403;-76
2022/09/14 06:15:12;;;;;;;4.80;3.20;;;;;;;20.46;35.81;99949.09;5073283;28;20486;-75
2022/09/14 06:17:38;;;;;;;13.80;4.55;;;;;;;20.72;35.69;99957.06;5074299;28;20062;-77
2022/09/14 06:20:08;;;;;;;12.32;4.20;;;;;;;20.86;35.09;99953.66;5073216;28;20526;-76
2022/09/14 06:22:34;;;;;;;8.23;3.72;;;;;;;20.88;34.85;99959.78;5074873;28;20135;-76
2022/09/14 06:25:00;;;;;;;8.77;3.75;;;;;;;21.02;34.70;99945.44;5073167;28;20036;-76
2022/09/14 06:27:26;;;;;;;9.52;3.53;;;;;;;21.07;33.84;99948.50;5072662;28;20640;-76
2022/09/14 06:29:53;;;;;;;15.00;4.72;;;;;;;21.16;34.37;99943.84;5074002;28;20036;-75
2022/09/14 06:32:22;;;;;;;10.95;4.18;;;;;;;21.07;34.03;99939.50;5073132;28;20044;-76
2022/09/14 06:34:48;;;;;;;5.53;3.03;;;;;;;21.17;34.02;99941.97;5072770;28;20078;-75
2022/09/14 06:37:13;;;;;;;10.55;3.40;;;;;;;21.24;33.52;99951.13;5072941;28;20047;-75
2022/09/14 06:39:39;;;;;;;7.88;3.45;;;;;;;21.19;33.49;99948.09;5074397;28;20044;-76
2022/09/14 06:42:05;;;;;;;8.27;4.22;;;;;;;21.12;33.15;99958.00;5072082;28;20044;-76
2022/09/14 06:44:31;;;;;;;15.40;4.35;;;;;;;21.09;33.77;99957.31;5072153;28;20037;-78
2022/09/14 06:46:57;;;;;;;10.35;4.80;;;;;;;21.27;33.50;99953.50;5073904;28;20045;-76
2022/09/14 06:49:26;;;;;;;17.08;5.03;;;;;;;21.33;33.62;99942.81;5073582;28;20123;-76
2022/09/14 06:51:59;;;;;;;12.60;4.50;;;;;;;21.57;33.50;99940.97;5056070;28;20064;-75
2022/09/14 06:54:26;;;;;;;10.05;4.97;;;;;;;21.86;32.87;99934.84;5073591;28;20057;-78
2022/09/14 06:56:52;;;;;;;9.63;5.05;;;;;;;22.09;32.88;99944.88;5073384;28;20139;-75
2022/09/14 06:59:18;;;;;;;9.43;4.85;;;;;;;22.37;32.47;99926.94;5055846;28;20052;-77
2022/09/14 07:01:45;;;;;;;21.80;5.85;;;;;;;22.71;31.63;99939.19;5089030;28;20067;-75
2022/09/14 07:04:11;;;;;;;10.30;4.80;;;;;;;22.49;31.17;99930.91;5071893;28;20103;-76
2022/09/14 07:06:42;;;;;;;14.55;5.28;;;;;;;22.49;31.76;99941.81;5055704;28;20124;-75
2022/09/14 07:09:08;;;;;;;12.80;4.38;;;;;;;22.54;31.30;99930.34;5072421;28;20109;-77
2022/09/14 07:11:34;;;;;;;11.07;3.85;;;;;;;22.58;31.52;99937.13;5073394;28;20488;-76
2022/09/14 07:14:01;;;;;;;7.28;4.05;;;;;;;22.57;31.17;99934.56;5072222;28;20186;-76
2022/09/14 07:16:29;;;;;;;6.13;3.47;;;;;;;22.51;31.04;99947.06;5073208;28;20059;-76
2022/09/14 07:18:57;;;;;;;8.60;2.97;;;;;;;22.41;31.33;99938.31;5073545;28;20040;-76
2022/09/14 07:21:23;;;;;;;6.30;3.03;;;;;;;22.24;31.85;99940.34;5072388;28;20052;-76
2022/09/14 07:23:49;;;;;;;11.00;3.58;;;;;;;22.07;32.08;99936.88;5071905;28;20415;-76
2022/09/14 07:26:17;;;;;;;8.70;2.92;;;;;;;22.36;31.82;99936.13;5055019;28;20098;-77
2022/09/14 07:28:45;;;;;;;3.67;2.33;;;;;;;22.26;31.19;99938.28;5088673;28;20550;-76
2022/09/14 07:31:20;;;;;;;6.88;2.67;;;;;;;22.59;31.37;99936.09;5088811;28;20127;-77
2022/09/14 07:33:47;;;;;;;9.75;3.38;;;;;;;22.68;31.00;99934.09;5073365;28;20045;-77
2022/09/14 07:36:13;;;;;;;5.07;2.95;;;;;;;22.66;30.94;99920.69;5055757;28;20036;-76
2022/09/14 07:38:40;;;;;;;3.75;2.55;;;;;;;22.85;29.80;99935.63;5055675;28;20090;-76
2022/09/14 07:41:06;;;;;;;4.88;3.30;;;;;;;22.88;29.60;99928.97;5072331;28;20055;-77
2022/09/14 07:43:32;;;;;;;5.03;2.95;;;;;;;23.01;29.88;99938.19;5089187;28;20041;-76
2022/09/14 07:46:02;;;;;;;8.02;2.92;;;;;;;22.97;29.74;99939.59;5073489;28;20044;-77
2022/09/14 07:48:30;;;;;;;11.07;3.70;;;;;;;22.96;29.81;99932.47;5071853;28;20043;-78
2022/09/14 07:51:00;;;;;;;7.97;3.17;;;;;;;22.90;29.83;99935.91;5071550;28;20092;-77
2022/09/14 07:53:26;;;;;;;5.63;2.65;;;;;;;23.04;30.19;99917.88;5071579;28;20553;-77
2022/09/14 07:55:52;;;;;;;6.45;2.90;;;;;;;23.43;29.65;99933.94;5071591;28;20048;-76
2022/09/14 07:58:18;;;;;;;7.60;3.22;;;;;;;23.61;28.88;99927.19;5054700;28;20147;-76
2022/09/14 08:00:44;;;;;;;4.07;2.80;;;;;;;23.51;28.70;99931.06;5071595;28;20479;-76
2022/09/14 08:03:10;;;;;;;7.22;3.67;;;;;;;23.67;28.49;99934.63;5088338;28;20045;-76
2022/09/14 08:05:35;;;;;;;7.15;3.88;;;;;;;23.73;28.03;99933.84;5071227;28;20485;-77
2022/09/14 08:08:01;;;;;;;10.85;3.13;;;;;;;23.42;28.05;99926.75;5070663;28;20131;-78
2022/09/14 08:10:27;;;;;;;9.23;3.55;;;;;;;23.33;28.09;99911.56;5071432;28;20130;-75
2022/09/14 08:12:55;;;;;;;8.02;3.30;;;;;;;23.72;28.34;99915.78;5071301;28;20040;-77
2022/09/14 08:15:22;;;;;;;9.43;3.83;;;;;;;24.31;27.65;99920.97;5072530;28;20048;-77
2022/09/14 08:17:48;;;;;;;10.27;3.15;;;;;;;24.60;26.89;99911.75;5071420;28;20045;-77
2022/09/14 08:20:15;;;;;;;8.80;3.20;;;;;;;24.87;26.47;99925.59;5071324;28;20037;-76
2022/09/14 08:22:43;;;;;;;6.95;3.45;;;;;;;24.96;25.85;99919.75;5071423;28;20040;-76
2022/09/14 08:25:10;;;;;;;7.88;3.17;;;;;;;25.13;26.10;99916.72;5071190;28;20044;-77
2022/09/14 08:27:37;;;;;;;7.50;2.67;;;;;;;25.02;26.01;99917.25;5054418;28;20036;-76
2022/09/14 08:30:04;;;;;;;3.42;2.38;;;;;;;24.75;26.66;99917.13;5072798;28;20124;-77
2022/09/14 08:32:31;;;;;;;8.95;2.28;;;;;;;24.51;27.27;99906.63;5071575;28;20186;-77
2022/09/14 08:34:57;;;;;;;5.60;2.03;;;;;;;24.59;27.40;99911.94;5071214;28;20136;-77
2022/09/14 08:37:23;;;;;;;8.02;2.55;;;;;;;24.82;26.47;99911.66;5071317;28;20048;-76
2022/09/14 08:39:50;;;;;;;4.38;2.70;;;;;;;24.85;25.99;99906.63;5072227;28;20499;-76
2022/09/14 08:42:21;;;;;;;5.93;3.67;;;;;;;24.86;26.09;99907.47;5072404;28;20041;-76
2022/09/14 08:44:59;;;;;;;5.53;3.10;;;;;;;24.89;26.52;99913.38;5088042;28;20044;-76
2022/09/14 08:47:29;;;;;;;6.38;3.90;;;;;;;24.96;26.41;99910.69;5087808;28;20036;-78
2022/09/14 08:50:02;;;;;;;10.07;5.18;;;;;;;24.82;26.79;99912.50;5072185;28;20066;-77
2022/09/14 08:52:32;;;;;;;12.10;3.92;;;;;;;24.70;26.51;99900.44;5070955;28;20044;-76
2022/09/14 08:55:00;;;;;;;10.02;5.03;;;;;;;24.57;26.36;99889.44;5071205;28;20063;-76
2022/09/14 08:57:42;;;;;;;12.75;4.78;;;;;;;24.31;26.80;99910.03;5070867;28;20045;-75
2022/09/14 09:00:15;;;;;;;8.63;3.28;;;;;;;24.49;26.52;99895.06;5071150;28;20047;-76
2022/09/14 09:03:18;;;;;;;12.38;3.70;;;;;;;24.76;26.62;99902.38;5070484;28;20045;-77
2022/09/14 09:05:52;;;;;;;5.28;2.60;;;;;;;25.10;26.29;99892.50;5070583;28;20048;-77
2022/09/14 09:08:30;;;;;;;6.70;2.65;;;;;;;25.50;26.21;99889.88;5071910;28;20158;-77
2022/09/14 09:11:00;;;;;;;4.47;2.50;;;;;;;25.65;26.03;99887.81;5072068;28;20044;-77
2022/09/14 09:13:31;;;;;;;8.38;2.80;;;;;;;25.77;26.27;99886.19;5072067;28;20055;-77
2022/09/14 09:16:01;;;;;;;6.65;3.08;;;;;;;25.49;26.57;99890.94;5071889;28;20048;-76
2022/09/14 09:18:30;;;;;;;6.03;2.80;;;;;;;25.64;26.86;99875.19;5087907;28;20048;-77
2022/09/14 09:21:02;;;;;;;;;;;;;;;25.69;26.51;99883.63;5074714;28;20412;-76
2022/09/14 09:23:31;;;;;;;4.03;3.35;;;;;;;25.80;26.12;99876.72;5057566;28;19916;-76
2022/09/14 09:26:03;;;;;;;4.85;2.38;;;;;;;26.07;25.98;99888.56;5075703;28;20048;-76
2022/09/14 09:28:30;;;;;;;5.18;2.70;;;;;;;26.12;25.78;99870.41;5073879;28;20036;-77
2022/09/14 09:31:06;;;;;;;6.25;2.22;;;;;;;26.26;25.43;99882.22;5074140;28;20044;-75
2022/09/14 09:33:52;;;;;;;3.95;2.15;;;;;;;26.46;24.45;99875.91;5046517;28;20067;-77
2022/09/14 09:36:21;;;;;;;5.30;2.20;;;;;;;26.35;24.82;99869.13;5074288;28;20093;-77
2022/09/14 09:38:47;;;;;;;5.40;2.15;;;;;;;26.20;24.82;99863.88;5040843;28;20044;-78
2022/09/14 09:41:25;;;;;;;3.38;1.88;;;;;;;26.33;25.04;99863.88;5073903;28;20047;-77
2022/09/14 09:43:59;;;;;;;2.97;1.83;;;;;;;26.54;24.28;99856.50;5074321;28;20047;-77
2022/09/14 09:46:30;;;;;;;3.78;1.90;;;;;;;26.62;24.13;99865.31;5073761;28;20048;-76
2022/09/14 09:48:57;;;;;;;8.68;2.17;;;;;;;26.70;24.70;99866.16;5090345;28;20040;-76
2022/09/14 09:51:23;;;;;;;9.15;2.10;;;;;;;26.83;24.81;99853.25;5075349;28;20092;-77
2022/09/14 09:53:56;;;;;;;4.53;2.10;;;;;;;27.24;24.46;99854.81;5074972;28;20122;-78
2022/09/14 09:56:36;;;;;;;6.00;2.97;;;;;;;27.63;24.33;99852.88;5057356;28;20063;-77
2022/09/14 09:59:01;;;;;;;3.83;2.15;;;;;;;27.81;23.38;99844.75;5074926;28;20048;-77
2022/09/14 10:01:29;;;;;;;10.30;2.72;;;;;;;28.06;23.17;99843.94;5074284;28;20047;-76
2022/09/14 10:04:14;;;;;;;6.45;2.25;;;;;;;28.27;23.15;99823.41;5073837;28;20071;-77
2022/09/14 10:06:43;;;;;;;10.07;3.10;;;;;;;28.70;22.91;99839.94;5090305;28;20564;-76
2022/09/14 10:09:15;;;;;;;7.10;2.67;;;;;;;28.63;22.98;99832.81;5073551;28;20052;-77
2022/09/14 10:11:42;;;;;;;5.32;2.70;;;;;;;28.93;22.53;99838.41;5056554;28;20040;-77
2022/09/14 10:14:28;;;;;;;5.78;2.35;;;;;;;29.13;22.14;99827.97;5074024;28;20048;-76
2022/09/14 10:17:16;;;;;;;4.63;2.40;;;;;;;29.25;20.27;99836.28;5056935;28;20044;-77
2022/09/14 10:19:52;;;;;;;5.43;2.25;;;;;;;29.09;20.25;99840.53;5073291;28;20093;-76
2022/09/14 10:22:26;;;;;;;7.03;2.75;;;;;;;29.22;19.92;99832.09;5074278;28;20471;-76
2022/09/14 10:24:56;;;;;;;9.68;2.10;;;;;;;29.26;20.05;99838.84;5078141;28;20044;-77
2022/09/14 10:27:40;;;;;;;1.70;1.60;;;;;;;29.17;19.83;99837.47;5091162;28;20040;-76
2022/09/14 10:30:13;;;;;;;10.93;1.90;;;;;;;28.84;20.46;99820.50;5062077;28;20078;-76
2022/09/14 10:32:42;;;;;;;5.75;2.08;;;;;;;28.82;20.26;99826.25;5074474;28;20488;-76
2022/09/14 10:35:16;;;;;;;5.15;1.88;;;;;;;29.04;19.87;99823.88;5073127;28;20044;-76
2022/09/14 10:37:45;;;;;;;8.48;2.38;;;;;;;28.97;20.10;99829.44;5074465;28;20051;-77
2022/09/14 10:40:17;;;;;;;5.13;2.42;;;;;;;28.99;19.66;99831.97;5073840;28;20043;-76
2022/09/14 10:43:03;;;;;;;5.47;2.53;;;;;;;29.03;19.64;99816.69;5073969;28;20044;-76
2022/09/14 10:45:38;;;;;;;5.95;2.30;;;;;;;29.27;19.41;99812.13;5069310;28;20044;-77
2022/09/14 10:48:25;;;;;;;7.43;2.30;;;;;;;29.66;19.21;99816.22;5072649;28;20040;-76
2022/09/14 10:51:12;;;;;;;9.43;2.92;;;;;;;30.02;18.92;99811.63;5055907;28;20098;-77
2022/09/14 10:54:10;;;;;;;5.33;2.23;;;;;;;30.45;18.56;99807.69;5072603;28;20495;-77
2022/09/14 10:56:50;;;;;;;12.77;2.90;;;;;;;30.19;18.30;99803.50;5072184;28;20060;-77
2022/09/14 10:59:40;;;;;;;7.72;2.67;;;;;;;30.35;18.20;99801.91;5072430;28;20082;-77
2022/09/14 11:02:33;;;;;;;11.40;2.88;;;;;;;30.75;17.95;99795.66;5073476;28;20060;-77
2022/09/14 11:05:22;;;;;;;16.02;3.03;;;;;;;31.00;18.18;99800.88;5073455;28;20079;-76
2022/09/14 11:08:00;;;;;;;13.38;2.90;;;;;;;31.14;17.60;99800.34;5071796;28;20046;-76
2022/09/14 11:10:59;;;;;;;8.32;2.33;;;;;;;30.79;17.91;99810.66;5073686;28;20389;-76
2022/09/14 11:13:43;;;;;;;5.50;1.98;;;;;;;30.73;17.81;99799.47;5073393;28;20040;-76
2022/09/14 11:16:40;;;;;;;5.22;1.67;;;;;;;30.35;18.23;99796.41;5088863;28;20040;-76
2022/09/14 11:19:25;;;;;;;2.80;1.80;;;;;;;30.39;18.32;99803.13;5089260;28;20143;-76
2022/09/14 11:22:03;;;;;;;6.28;1.90;;;;;;;30.98;17.91;99800.28;5072022;28;20040;-76
2022/09/14 11:24:43;;;;;;;10.05;3.10;;;;;;;31.21;17.72;99789.97;5071888;28;20138;-76
2022/09/14 11:27:29;;;;;;;8.10;3.20;;;;;;;31.65;17.52;99795.75;5072137;28;20048;-76
2022/09/14 11:30:02;;;;;;;6.70;2.50;;;;;;;31.69;17.89;99801.63;5055306;28;20044;-77
2022/09/14 11:33:06;;;;;;;6.60;2.20;;;;;;;31.85;17.37;99792.53;5072949;28;20063;-76
2022/09/14 11:36:17;;;;;;;4.85;1.75;;;;;;;31.84;17.28;99795.53;5053941;28;20147;-76
2022/09/14 11:38:56;;;;;;;3.95;1.75;;;;;;;31.79;17.10;99784.41;5054367;28;20044;-75
2022/09/14 11:41:33;;;;;;;4.45;1.50;;;;;;;32.13;17.09;99783.31;5071921;28;20075;-76
2022/09/14 11:44:01;;;;;;;6.40;1.80;;;;;;;32.29;16.90;99789.06;5038634;28;20054;-76
2022/09/14 11:46:30;;;;;;;;;;;;;;;31.79;17.25;99784.41;5071708;28;20094;-74
2022/09/14 11:49:21;;;;;;;2.97;1.60;;;;;;;30.69;18.01;99784.50;5072653;28;19925;-76